Time;durP1;ratioP1;P1;durP2;ratioP2;P2;SDS_P1;SDS_P2;PMS_P1;PMS_P2;Temp;Humidity;BMP_temperature;BMP_pressure;BME280_temperature;BME280_humidity;BME280_pressure;Samples;Min_cycle;Max_cycle;Signal;HPM_P1;HPM_P2
2021/09/17 00:01:55;;;;;;;125.60;118.63;;;15.30;99.90;;;;;;5067980;28;20228;-75
2021/09/17 00:04:22;;;;;;;96.05;91.40;;;15.30;99.90;;;;;;5075084;28;20260;-75
2021/09/17 00:06:50;;;;;;;66.93;63.42;;;15.30;99.90;;;;;;5069851;28;20203;-75
2021/09/17 00:09:20;;;;;;;85.72;81.43;;;15.30;99.90;;;;;;5071733;28;20242;-76
2021/09/17 00:11:47;;;;;;;90.25;85.75;;;15.30;99.90;;;;;;5076672;28;20230;-76
2021/09/17 00:14:14;;;;;;;87.40;82.63;;;15.30;99.90;;;;;;5076708;28;20278;-75
2021/09/17 00:16:40;;;;;;;78.70;74.65;;;15.30;99.90;;;;;;5068067;28;20234;-75
2021/09/17 00:19:07;;;;;;;90.38;85.60;;;15.30;99.90;;;;;;5068091;28;20704;-76
2021/09/17 00:21:34;;;;;;;90.30;85.70;;;15.30;99.90;;;;;;5067484;28;20204;-75
2021/09/17 00:24:01;;;;;;;81.63;77.40;;;15.40;99.90;;;;;;5067332;28;20222;-75
2021/09/17 00:26:29;;;;;;;92.68;87.97;;;15.40;99.90;;;;;;5067492;28;20202;-76
2021/09/17 00:28:56;;;;;;;113.45;107.45;;;15.40;99.90;;;;;;5073624;28;20245;-76
2021/09/17 00:31:23;;;;;;;115.10;109.57;;;15.40;99.90;;;;;;5067595;28;20690;-75
2021/09/17 00:33:50;;;;;;;101.25;96.30;;;15.40;99.90;;;;;;5070214;28;20207;-76
2021/09/17 00:36:17;;;;;;;109.25;103.82;;;15.40;99.90;;;;;;5074678;28;20203;-75
2021/09/17 00:38:44;;;;;;;106.47;101.03;;;15.50;99.90;;;;;;5069739;28;20207;-75
2021/09/17 00:41:11;;;;;;;125.63;119.70;;;15.50;99.90;;;;;;5067638;28;20226;-75
2021/09/17 00:43:40;;;;;;;100.93;95.18;;;15.50;99.90;;;;;;5070798;28;20228;-75
2021/09/17 00:46:07;;;;;;;94.90;90.15;;;15.50;99.90;;;;;;5067052;28;20257;-75
2021/09/17 00:48:34;;;;;;;114.78;109.10;;;15.50;99.90;;;;;;5071154;28;20227;-75
2021/09/17 00:51:01;;;;;;;101.50;96.68;;;15.50;99.90;;;;;;5071582;28;20607;-75
2021/09/17 00:53:33;;;;;;;113.82;107.90;;;15.50;99.90;;;;;;5066515;28;20234;-75
2021/09/17 00:56:00;;;;;;;105.72;100.47;;;15.50;99.90;;;;;;5067406;28;20746;-75
2021/09/17 00:58:27;;;;;;;123.40;117.18;;;15.50;99.90;;;;;;5073554;28;20207;-75
2021/09/17 01:00:56;;;;;;;112.20;106.82;;;15.50;99.90;;;;;;5068761;28;20214;-76
2021/09/17 01:03:23;;;;;;;85.30;80.47;;;15.50;99.90;;;;;;5076419;28;20246;-75
2021/09/17 01:05:49;;;;;;;77.72;73.72;;;15.50;99.90;;;;;;5066372;28;20199;-75
2021/09/17 01:08:16;;;;;;;106.85;101.68;;;15.50;99.90;;;;;;5073293;28;20224;-75
2021/09/17 01:10:44;;;;;;;82.43;78.10;;;15.50;99.90;;;;;;5066747;28;20205;-76
2021/09/17 01:13:11;;;;;;;96.53;91.70;;;15.50;99.90;;;;;;5073365;28;20230;-75
2021/09/17 01:15:38;;;;;;;97.55;92.47;;;15.50;99.90;;;;;;5067211;28;20203;-76
2021/09/17 01:18:06;;;;;;;98.97;94.07;;;15.50;99.90;;;;;;5071098;28;20226;-75
2021/09/17 01:20:33;;;;;;;75.85;71.88;;;15.50;99.90;;;;;;5072346;28;20206;-76
2021/09/17 01:23:02;;;;;;;90.15;85.18;;;15.50;99.90;;;;;;5066386;28;20203;-76
2021/09/17 01:25:28;;;;;;;87.30;82.55;;;15.60;99.90;;;;;;5066741;28;20635;-75
2021/09/17 01:27:55;;;;;;;97.32;92.28;;;15.60;99.90;;;;;;5069820;28;20281;-76
2021/09/17 01:30:23;;;;;;;123.68;117.47;;;15.60;99.90;;;;;;5077649;28;20569;-75
2021/09/17 01:32:51;;;;;;;129.98;123.45;;;15.60;99.90;;;;;;5066174;28;20203;-76
2021/09/17 01:35:20;;;;;;;69.82;65.85;;;15.60;99.90;;;;;;5065484;28;20203;-75
2021/09/17 01:37:48;;;;;;;135.38;128.38;;;15.60;99.90;;;;;;5070394;28;20203;-75
2021/09/17 01:40:16;;;;;;;132.80;125.85;;;15.60;99.90;;;;;;5069902;28;20304;-75
2021/09/17 01:42:44;;;;;;;79.15;74.70;;;15.60;99.90;;;;;;5069806;28;20214;-75
2021/09/17 01:45:12;;;;;;;102.53;96.38;;;15.60;99.90;;;;;;5066568;28;20195;-76
2021/09/17 01:47:39;;;;;;;137.30;130.20;;;15.70;99.90;;;;;;5066402;28;20231;-75
2021/09/17 01:50:07;;;;;;;137.10;129.98;;;15.70;99.90;;;;;;5071269;28;20210;-76
2021/09/17 01:52:34;;;;;;;134.63;127.25;;;15.70;99.90;;;;;;5065789;28;20221;-76
2021/09/17 01:55:01;;;;;;;95.00;89.68;;;15.70;99.90;;;;;;5071768;28;20203;-75
2021/09/17 01:57:30;;;;;;;87.38;82.40;;;15.80;99.90;;;;;;5069187;28;20203;-75
2021/09/17 01:59:57;;;;;;;134.48;127.65;;;15.80;99.90;;;;;;5066100;28;20284;-75
2021/09/17 02:02:24;;;;;;;135.38;128.10;;;15.80;99.90;;;;;;5066549;28;20203;-75
2021/09/17 02:04:51;;;;;;;111.93;105.80;;;15.80;99.90;;;;;;5065758;28;20641;-75
2021/09/17 02:07:18;;;;;;;144.40;137.10;;;15.90;99.90;;;;;;5065687;28;20202;-75
2021/09/17 02:09:45;;;;;;;109.70;103.70;;;15.90;99.90;;;;;;5066201;28;20231;-75
2021/09/17 02:12:12;;;;;;;87.82;82.57;;;15.90;99.90;;;;;;5065427;28;20226;-76
2021/09/17 02:14:40;;;;;;;68.45;64.63;;;16.00;99.90;;;;;;5066159;28;20198;-75
2021/09/17 02:17:08;;;;;;;113.00;106.60;;;16.00;99.90;;;;;;5070343;28;20234;-75
2021/09/17 02:19:35;;;;;;;130.10;123.50;;;16.00;99.90;;;;;;5067744;28;20264;-75
2021/09/17 02:22:02;;;;;;;138.75;131.30;;;16.10;99.90;;;;;;5065651;28;20816;-75
2021/09/17 02:24:29;;;;;;;96.72;90.85;;;16.10;99.90;;;;;;5075980;28;20203;-76
2021/09/17 02:26:56;;;;;;;101.00;95.35;;;16.10;99.90;;;;;;5065967;28;20211;-75
2021/09/17 02:29:23;;;;;;;77.30;72.72;;;16.10;99.90;;;;;;5069889;28;20230;-76
2021/09/17 02:31:51;;;;;;;77.60;73.15;;;16.10;99.90;;;;;;5066955;28;20203;-75
2021/09/17 02:34:18;;;;;;;82.93;78.05;;;16.10;99.90;;;;;;5065509;28;20238;-75
2021/09/17 02:36:45;;;;;;;83.60;78.57;;;16.20;99.90;;;;;;5065785;28;20594;-75
2021/09/17 02:39:13;;;;;;;82.30;77.38;;;16.20;99.90;;;;;;5071513;28;20204;-75
2021/09/17 02:41:41;;;;;;;69.38;64.85;;;16.10;99.90;;;;;;5071455;28;20267;-75
2021/09/17 02:44:08;;;;;;;91.72;86.10;;;16.20;99.90;;;;;;5065612;28;20207;-75
2021/09/17 02:46:35;;;;;;;76.93;72.13;;;16.20;99.90;;;;;;5068223;28;20199;-75
2021/09/17 02:49:04;;;;;;;97.22;91.68;;;16.20;99.90;;;;;;5070779;28;20271;-75
2021/09/17 02:51:31;;;;;;;97.55;91.95;;;16.20;99.90;;;;;;5076175;28;20201;-75
2021/09/17 02:54:00;;;;;;;84.10;79.30;;;16.20;99.90;;;;;;5072958;28;20223;-75
2021/09/17 02:56:27;;;;;;;82.45;77.50;;;16.20;99.90;;;;;;5076745;28;20230;-75
2021/09/17 02:58:54;;;;;;;112.47;106.28;;;16.20;99.90;;;;;;5069452;28;20206;-76
2021/09/17 03:01:21;;;;;;;76.25;71.55;;;16.20;99.90;;;;;;5069199;28;20230;-75
2021/09/17 03:03:48;;;;;;;64.85;60.55;;;16.30;99.90;;;;;;5074475;28;20685;-75
2021/09/17 03:06:16;;;;;;;73.22;68.80;;;16.20;99.90;;;;;;5072968;28;20258;-75
2021/09/17 03:08:43;;;;;;;70.72;66.43;;;16.20;99.90;;;;;;5069678;28;20227;-75
2021/09/17 03:11:10;;;;;;;109.15;102.75;;;16.30;99.90;;;;;;5072741;28;20208;-75
2021/09/17 03:13:37;;;;;;;73.47;69.05;;;16.20;99.90;;;;;;5075599;28;20567;-75
2021/09/17 03:16:05;;;;;;;50.30;46.90;;;16.30;99.90;;;;;;5068768;28;20199;-75
2021/09/17 03:18:33;;;;;;;67.70;62.70;;;16.30;99.90;;;;;;5071320;28;20245;-76
2021/09/17 03:21:00;;;;;;;93.60;87.95;;;16.30;99.90;;;;;;5068199;28;20529;-75
2021/09/17 03:23:28;;;;;;;68.40;64.10;;;16.30;99.90;;;;;;5081334;28;20200;-75
2021/09/17 03:25:55;;;;;;;95.95;90.20;;;16.40;99.90;;;;;;5069446;28;20203;-75
2021/09/17 03:28:22;;;;;;;46.55;43.13;;;16.30;99.90;;;;;;5075108;28;20223;-75
2021/09/17 03:30:49;;;;;;;58.35;54.63;;;16.40;99.90;;;;;;5067780;28;20662;-75
2021/09/17 03:33:16;;;;;;;50.58;47.25;;;16.40;99.90;;;;;;5068901;28;20200;-75
2021/09/17 03:35:43;;;;;;;52.35;48.83;;;16.40;99.90;;;;;;5068525;28;20261;-75
2021/09/17 03:38:10;;;;;;;65.47;61.15;;;16.40;99.90;;;;;;5074309;28;20202;-75
2021/09/17 03:40:40;;;;;;;69.78;65.25;;;16.40;99.90;;;;;;5068366;28;20208;-75
2021/09/17 03:43:07;;;;;;;60.38;56.50;;;16.40;99.90;;;;;;5068355;28;20265;-75
2021/09/17 03:45:36;;;;;;;47.45;43.95;;;16.40;99.90;;;;;;5068578;28;20257;-75
2021/09/17 03:48:05;;;;;;;58.10;53.88;;;16.40;99.90;;;;;;5067792;28;20235;-75
2021/09/17 03:50:32;;;;;;;96.93;91.60;;;16.30;99.90;;;;;;5067929;28;20198;-75
2021/09/17 03:52:59;;;;;;;60.45;56.60;;;16.30;99.90;;;;;;5068413;28;20235;-75
2021/09/17 03:55:26;;;;;;;51.05;47.25;;;16.40;99.90;;;;;;5068417;28;20230;-74
2021/09/17 03:57:54;;;;;;;48.63;45.42;;;16.30;99.90;;;;;;5068141;28;20199;-75
2021/09/17 04:00:22;;;;;;;71.10;66.57;;;16.40;99.90;;;;;;5067728;28;20619;-75
2021/09/17 04:02:49;;;;;;;65.85;61.72;;;16.40;99.90;;;;;;5078295;28;20634;-75
2021/09/17 04:05:16;;;;;;;64.97;60.90;;;16.30;99.90;;;;;;5078790;28;20206;-75
2021/09/17 04:07:43;;;;;;;52.55;49.08;;;16.40;99.90;;;;;;5068210;28;20231;-74
2021/09/17 04:10:13;;;;;;;63.67;59.55;;;16.30;99.90;;;;;;5068714;28;20227;-75
2021/09/17 04:12:41;;;;;;;47.42;44.10;;;16.30;99.90;;;;;;5070106;28;20304;-74
2021/09/17 04:15:10;;;;;;;54.30;50.45;;;16.30;99.90;;;;;;5071590;28;20202;-76
2021/09/17 04:17:37;;;;;;;62.83;58.63;;;16.30;99.90;;;;;;5073646;28;20204;-77
2021/09/17 04:20:06;;;;;;;62.58;58.03;;;16.30;99.90;;;;;;5067838;28;20207;-76
2021/09/17 04:22:33;;;;;;;61.10;56.65;;;16.30;99.90;;;;;;5067558;28;20208;-76
2021/09/17 04:25:00;;;;;;;54.33;50.63;;;16.30;99.90;;;;;;5068050;28;20626;-76
2021/09/17 04:27:27;;;;;;;70.15;65.30;;;16.30;99.90;;;;;;5067705;28;20238;-77
2021/09/17 04:29:54;;;;;;;65.18;59.15;;;16.30;99.90;;;;;;5071121;28;20637;-76
2021/09/17 04:32:23;;;;;;;71.15;66.40;;;16.30;99.90;;;;;;5074543;28;20203;-76
2021/09/17 04:34:50;;;;;;;69.85;65.50;;;16.40;99.90;;;;;;5083016;28;20236;-76
2021/09/17 04:37:17;;;;;;;48.17;44.38;;;16.40;99.90;;;;;;5073720;28;20203;-76
2021/09/17 04:39:44;;;;;;;92.40;87.00;;;16.40;99.90;;;;;;5067715;28;20262;-76
2021/09/17 04:42:11;;;;;;;47.33;43.67;;;16.40;99.90;;;;;;5068892;28;20293;-76
2021/09/17 04:44:38;;;;;;;46.05;42.67;;;16.40;99.90;;;;;;5069197;28;20228;-76
2021/09/17 04:47:05;;;;;;;60.78;56.67;;;16.40;99.90;;;;;;5066917;28;20263;-77
2021/09/17 04:49:34;;;;;;;69.18;64.65;;;16.30;99.90;;;;;;5073672;28;20711;-76
2021/09/17 04:52:01;;;;;;;63.00;58.85;;;16.40;99.90;;;;;;5068030;28;20230;-77
2021/09/17 04:54:28;;;;;;;45.22;42.20;;;16.40;99.90;;;;;;5067367;28;20211;-76
2021/09/17 04:56:55;;;;;;;97.05;90.95;;;16.40;99.90;;;;;;5067250;28;20220;-76
2021/09/17 04:59:22;;;;;;;68.60;64.22;;;16.40;99.90;;;;;;5066885;28;20197;-76
2021/09/17 05:01:48;;;;;;;68.05;63.95;;;16.40;99.90;;;;;;5068190;28;20257;-76
2021/09/17 05:04:15;;;;;;;78.07;73.22;;;16.40;99.90;;;;;;5070053;28;20231;-76
2021/09/17 05:06:44;;;;;;;77.50;72.13;;;16.30;99.90;;;;;;5075906;28;20256;-77
2021/09/17 05:09:11;;;;;;;78.40;73.65;;;16.40;99.90;;;;;;5066287;28;20633;-77
2021/09/17 05:11:37;;;;;;;83.97;78.45;;;16.30;99.90;;;;;;5069291;28;20197;-76
2021/09/17 05:14:04;;;;;;;80.05;74.75;;;16.30;99.90;;;;;;5066992;28;20207;-76
2021/09/17 05:16:32;;;;;;;32.38;29.27;;;16.30;99.90;;;;;;5066470;28;20463;-76
2021/09/17 05:19:00;;;;;;;65.95;61.40;;;16.40;99.90;;;;;;5072915;28;20206;-76
2021/09/17 05:21:27;;;;;;;93.20;87.22;;;16.40;99.90;;;;;;5066469;28;20218;-76
2021/09/17 05:23:55;;;;;;;74.80;70.13;;;16.40;99.90;;;;;;5066655;28;20276;-76
2021/09/17 05:26:22;;;;;;;57.83;53.55;;;16.40;99.90;;;;;;5066752;28;20681;-76
2021/09/17 05:28:49;;;;;;;55.42;51.50;;;16.50;99.90;;;;;;5072142;28;20218;-76
2021/09/17 05:31:16;;;;;;;109.55;103.13;;;16.50;99.90;;;;;;5067069;28;20204;-76
2021/09/17 05:33:43;;;;;;;72.30;67.78;;;16.50;99.90;;;;;;5066678;28;20209;-76
2021/09/17 05:36:13;;;;;;;55.38;51.25;;;16.40;99.90;;;;;;5066656;28;20227;-76
2021/09/17 05:38:40;;;;;;;56.47;52.10;;;16.40;99.90;;;;;;5066770;28;20207;-76
2021/09/17 05:41:09;;;;;;;83.38;78.22;;;16.50;99.90;;;;;;5066457;28;20200;-76
2021/09/17 05:43:35;;;;;;;72.55;67.47;;;16.50;99.90;;;;;;5065995;28;20594;-76
2021/09/17 05:46:02;;;;;;;53.88;49.72;;;16.50;99.90;;;;;;5069171;28;20224;-76
2021/09/17 05:48:29;;;;;;;47.00;43.17;;;16.50;99.90;;;;;;5065357;28;20204;-76
2021/09/17 05:50:56;;;;;;;64.75;60.35;;;16.50;99.90;;;;;;5070128;28;20253;-76
2021/09/17 05:53:23;;;;;;;78.88;73.90;;;16.50;99.90;;;;;;5071510;28;20220;-76
2021/09/17 05:55:50;;;;;;;73.00;68.22;;;16.50;99.90;;;;;;5065896;28;20210;-76
2021/09/17 05:58:18;;;;;;;77.35;72.03;;;16.60;99.90;;;;;;5067810;28;20193;-76
2021/09/17 06:00:45;;;;;;;69.40;64.70;;;16.60;99.90;;;;;;5073942;28;20209;-77
2021/09/17 06:03:12;;;;;;;111.00;104.65;;;16.70;99.90;;;;;;5075900;28;20383;-76
2021/09/17 06:05:39;;;;;;;85.10;78.97;;;16.70;99.90;;;;;;5066086;28;20203;-76
2021/09/17 06:08:06;;;;;;;68.40;63.00;;;16.70;99.90;;;;;;5073553;28;20225;-76
2021/09/17 06:10:33;;;;;;;73.05;68.22;;;16.70;99.90;;;;;;5068941;28;20235;-76
2021/09/17 06:13:00;;;;;;;124.85;117.32;;;16.80;99.90;;;;;;5065590;28;20231;-76
2021/09/17 06:15:28;;;;;;;78.88;73.68;;;16.80;99.90;;;;;;5065563;28;20226;-76
2021/09/17 06:17:55;;;;;;;95.00;88.63;;;16.90;99.90;;;;;;5066279;28;20203;-76
2021/09/17 06:20:23;;;;;;;83.03;77.32;;;16.90;99.90;;;;;;5071610;28;20204;-76
2021/09/17 06:22:53;;;;;;;83.03;77.57;;;16.90;99.90;;;;;;5070218;28;20214;-76
2021/09/17 06:25:21;;;;;;;80.07;74.45;;;17.00;99.90;;;;;;5070479;28;20230;-76
2021/09/17 06:27:49;;;;;;;98.75;92.60;;;16.90;99.90;;;;;;5070555;28;20203;-76
2021/09/17 06:30:17;;;;;;;134.85;127.07;;;17.00;99.90;;;;;;5069820;28;20231;-77
2021/09/17 06:32:45;;;;;;;81.13;75.45;;;17.10;99.90;;;;;;5070627;28;20214;-76
2021/09/17 06:35:13;;;;;;;101.68;95.53;;;17.10;99.90;;;;;;5078553;28;20225;-76
2021/09/17 06:37:47;;;;;;;63.28;58.83;;;17.10;99.90;;;;;;5078797;28;21204;-77
2021/09/17 06:40:15;;;;;;;80.93;75.35;;;17.20;99.90;;;;;;5069399;28;20240;-76
2021/09/17 06:42:42;;;;;;;95.82;90.07;;;17.30;99.90;;;;;;5069558;28;20215;-76
2021/09/17 06:45:10;;;;;;;92.00;86.30;;;17.30;99.90;;;;;;5072839;28;20199;-76
2021/09/17 06:47:46;;;;;;;113.50;106.80;;;17.30;99.90;;;;;;5070546;28;20231;-76
2021/09/17 06:50:14;;;;;;;158.05;148.65;;;17.30;99.90;;;;;;5072145;28;20224;-76
2021/09/17 06:52:47;;;;;;;82.20;76.82;;;17.30;99.90;;;;;;5076445;28;20200;-76
2021/09/17 06:55:14;;;;;;;106.93;99.97;;;17.40;99.90;;;;;;5075707;28;20213;-76
2021/09/17 06:57:46;;;;;;;99.07;92.57;;;17.40;99.90;;;;;;5070033;28;20271;-77
2021/09/17 07:00:15;;;;;;;134.85;126.97;;;17.30;99.90;;;;;;5076063;28;20203;-76
2021/09/17 07:02:42;;;;;;;104.57;97.93;;;17.30;99.90;;;;;;5068667;28;20270;-76
2021/09/17 07:05:12;;;;;;;71.75;66.90;;;17.30;99.90;;;;;;5072512;28;20245;-76
2021/09/17 07:07:39;;;;;;;73.50;68.57;;;17.40;99.90;;;;;;5072060;28;20240;-77
2021/09/17 07:10:08;;;;;;;76.45;71.30;;;17.50;99.90;;;;;;5079303;28;20606;-76
2021/09/17 07:12:35;;;;;;;57.08;52.78;;;17.50;99.90;;;;;;5081189;28;20207;-76
2021/09/17 07:15:02;;;;;;;79.72;73.85;;;17.60;99.90;;;;;;5075027;28;20257;-76
2021/09/17 07:17:29;;;;;;;61.22;56.58;;;17.60;99.90;;;;;;5069803;28;20200;-76
2021/09/17 07:19:56;;;;;;;99.82;93.55;;;17.60;99.90;;;;;;5068749;28;20212;-76
2021/09/17 07:22:25;;;;;;;79.50;73.90;;;17.70;99.90;;;;;;5069502;28;20203;-76
2021/09/17 07:24:52;;;;;;;75.40;70.38;;;17.70;99.90;;;;;;5068948;28;20208;-76
2021/09/17 07:27:18;;;;;;;66.28;61.67;;;17.80;99.90;;;;;;5069207;28;20207;-76
2021/09/17 07:29:46;;;;;;;61.47;56.75;;;17.80;99.90;;;;;;5068764;28;20297;-76
2021/09/17 07:32:12;;;;;;;88.80;82.90;;;17.90;99.90;;;;;;5068114;28;20199;-76
2021/09/17 07:34:39;;;;;;;95.50;89.15;;;18.00;99.90;;;;;;5072596;28;20225;-76
2021/09/17 07:37:06;;;;;;;88.70;82.60;;;18.00;99.90;;;;;;5073802;28;20196;-77
2021/09/17 07:39:35;;;;;;;76.35;70.55;;;18.00;99.90;;;;;;5068588;28;20199;-76
2021/09/17 07:42:02;;;;;;;75.70;69.97;;;18.10;99.90;;;;;;5077315;28;20630;-76
2021/09/17 07:44:30;;;;;;;78.28;72.03;;;18.20;99.90;;;;;;5069014;28;20616;-76
2021/09/17 07:46:57;;;;;;;74.38;68.85;;;18.40;99.90;;;;;;5068864;28;20208;-76
2021/09/17 07:49:24;;;;;;;108.50;101.43;;;18.60;99.90;;;;;;5068424;28;20248;-76
2021/09/17 07:51:51;;;;;;;67.10;60.30;;;18.80;99.90;;;;;;5068336;28;20231;-76
2021/09/17 07:54:18;;;;;;;59.00;54.30;;;18.90;99.90;;;;;;5072836;28;20196;-77
2021/09/17 07:56:46;;;;;;;79.28;73.15;;;19.10;99.90;;;;;;5069087;28;20709;-76
2021/09/17 07:59:13;;;;;;;102.88;95.63;;;19.50;99.90;;;;;;5068679;28;20208;-76
2021/09/17 08:01:40;;;;;;;62.88;57.83;;;19.70;99.90;;;;;;5068318;28;20205;-76
2021/09/17 08:04:07;;;;;;;54.22;49.15;;;20.00;99.90;;;;;;5068307;28;20286;-76
2021/09/17 08:06:34;;;;;;;46.97;43.05;;;20.10;99.90;;;;;;5068595;28;20198;-76
2021/09/17 08:09:01;;;;;;;46.92;42.92;;;20.20;99.90;;;;;;5069227;28;20259;-76
2021/09/17 08:11:28;;;;;;;66.30;60.28;;;20.30;99.90;;;;;;5078149;28;20228;-76
2021/09/17 08:13:56;;;;;;;110.30;103.03;;;20.50;99.90;;;;;;5073339;28;20212;-76
2021/09/17 08:16:23;;;;;;;64.03;58.35;;;20.80;99.90;;;;;;5068496;28;20194;-76
2021/09/17 08:18:50;;;;;;;81.22;75.18;;;21.00;99.90;;;;;;5067847;28;20201;-76
2021/09/17 08:21:17;;;;;;;61.65;57.03;;;21.20;99.90;;;;;;5067695;28;20200;-76
2021/09/17 08:23:45;;;;;;;56.75;52.08;;;21.20;99.90;;;;;;5067363;28;20205;-76
2021/09/17 08:26:12;;;;;;;91.10;84.53;;;21.30;99.90;;;;;;5066255;28;20303;-77
2021/09/17 08:28:39;;;;;;;68.07;62.83;;;21.40;99.90;;;;;;5083132;28;20198;-76
2021/09/17 08:31:07;;;;;;;57.00;51.30;;;21.40;99.90;;;;;;5080308;28;20209;-76
2021/09/17 08:33:34;;;;;;;86.07;79.93;;;21.40;99.90;;;;;;5092002;28;20183;-76
2021/09/17 08:36:01;;;;;;;73.30;67.53;;;21.40;99.90;;;;;;5092399;28;20201;-76
2021/09/17 08:38:29;;;;;;;122.60;114.95;;;21.40;99.90;;;;;;5068349;28;20228;-76
2021/09/17 08:40:58;;;;;;;81.47;75.18;;;21.30;99.90;;;;;;5075869;28;20210;-77
2021/09/17 08:43:26;;;;;;;96.25;90.13;;;21.30;99.90;;;;;;5071546;28;20207;-76
2021/09/17 08:45:54;;;;;;;64.40;59.28;;;21.30;99.90;;;;;;5066762;28;20197;-76
2021/09/17 08:48:28;;;;;;;71.03;64.90;;;21.20;99.90;;;;;;5071488;28;20204;-76
2021/09/17 08:50:55;;;;;;;64.72;59.97;;;21.20;99.90;;;;;;5067530;28;20238;-76
2021/09/17 08:53:22;;;;;;;82.18;76.15;;;21.20;99.90;;;;;;5071246;28;20231;-77
2021/09/17 08:55:49;;;;;;;88.75;82.43;;;21.10;99.90;;;;;;5073255;28;20607;-76
2021/09/17 08:58:17;;;;;;;90.65;84.25;;;21.20;99.90;;;;;;5067444;28;20204;-76
2021/09/17 09:00:44;;;;;;;90.68;84.78;;;21.20;99.90;;;;;;5072172;28;20660;-76
2021/09/17 09:03:26;;;;;;;113.80;106.45;;;21.20;99.90;;;;;;5067176;28;20239;-76
2021/09/17 09:05:54;;;;;;;97.72;91.15;;;21.20;99.90;;;;;;5072247;28;20239;-76
2021/09/17 09:08:24;;;;;;;91.22;84.72;;;21.10;99.90;;;;;;5068724;28;20198;-76
2021/09/17 09:10:52;;;;;;;115.32;108.22;;;21.00;99.90;;;;;;5070742;28;20228;-76
2021/09/17 09:13:18;;;;;;;64.38;59.80;;;21.00;99.90;;;;;;5067279;28;20201;-77
2021/09/17 09:15:45;;;;;;;69.28;64.25;;;20.80;99.90;;;;;;5067498;28;20237;-76
2021/09/17 09:18:14;;;;;;;58.38;53.63;;;20.90;99.90;;;;;;5066981;28;20724;-76
2021/09/17 09:20:43;;;;;;;81.32;76.07;;;21.00;99.90;;;;;;5072058;28;20203;-76
2021/09/17 09:23:17;;;;;;;73.28;67.93;;;21.10;99.90;;;;;;5067305;28;20647;-77
2021/09/17 09:25:58;;;;;;;63.17;58.97;;;21.10;99.90;;;;;;5073029;28;20204;-76
2021/09/17 09:28:28;;;;;;;70.95;65.82;;;21.20;99.90;;;;;;5066757;28;20280;-76
2021/09/17 09:30:56;;;;;;;68.78;64.18;;;21.20;99.90;;;;;;5067272;28;20225;-76
2021/09/17 09:33:31;;;;;;;49.50;45.78;;;21.40;99.90;;;;;;5070808;28;20201;-77
2021/09/17 09:36:09;;;;;;;41.45;38.03;;;21.60;99.90;;;;;;5072046;28;20204;-77
2021/09/17 09:38:43;;;;;;;68.47;63.33;;;21.70;99.90;;;;;;5065466;28;20295;-77
2021/09/17 09:41:13;;;;;;;32.58;29.55;;;21.80;99.90;;;;;;5072457;28;20206;-76
2021/09/17 09:43:49;;;;;;;35.03;31.55;;;21.70;99.90;;;;;;5066588;28;20273;-77
2021/09/17 09:46:41;;;;;;;52.42;48.28;;;21.90;99.90;;;;;;5066083;28;20273;-77
2021/09/17 09:49:13;;;;;;;48.08;44.40;;;22.00;99.90;;;;;;5060677;28;20240;-77
2021/09/17 09:51:43;;;;;;;47.88;44.28;;;22.10;99.90;;;;;;5066284;28;20235;-76
2021/09/17 09:54:11;;;;;;;23.35;21.02;;;22.60;99.90;;;;;;5066349;28;20233;-77
2021/09/17 09:56:42;;;;;;;21.60;19.58;;;23.00;99.90;;;;;;5073260;28;20210;-76
2021/09/17 09:59:09;;;;;;;24.15;21.63;;;23.30;99.90;;;;;;5070729;28;20199;-76
2021/09/17 10:08:36;;;;;;;19.48;17.17;;;24.00;99.90;;;;;;5083418;28;20238;-77
2021/09/17 10:13:44;;;;;;;13.20;10.13;;;24.30;99.90;;;;;;5083086;28;20214;-77
2021/09/17 10:16:11;;;;;;;14.07;12.30;;;24.10;99.90;;;;;;5089815;28;20200;-77
2021/09/17 10:18:38;;;;;;;16.48;13.02;;;23.90;99.90;;;;;;5083786;28;20203;-77
2021/09/17 10:21:06;;;;;;;13.80;12.00;;;24.00;99.90;;;;;;5084838;28;20235;-77
2021/09/17 10:23:34;;;;;;;15.88;14.07;;;24.20;99.90;;;;;;5087682;28;20274;-77
2021/09/17 10:26:05;;;;;;;19.45;12.48;;;24.20;99.90;;;;;;5083127;28;20203;-77
2021/09/17 10:28:34;;;;;;;20.30;13.05;;;23.90;99.90;;;;;;5083233;28;20201;-77
2021/09/17 10:31:11;;;;;;;27.92;15.88;;;23.70;99.90;;;;;;5086851;28;20243;-77
2021/09/17 10:33:38;;;;;;;21.13;14.50;;;23.50;99.90;;;;;;5082516;28;20224;-77
2021/09/17 10:36:06;;;;;;;25.50;15.55;;;23.30;99.90;;;;;;5095124;28;20199;-77
2021/09/17 10:38:33;;;;;;;24.10;14.95;;;23.30;99.90;;;;;;5082981;28;20260;-77
2021/09/17 10:41:07;;;;;;;18.50;15.60;;;23.30;99.90;;;;;;5088442;28;20204;-77
2021/09/17 10:43:37;;;;;;;22.70;16.48;;;23.30;99.90;;;;;;5082523;28;20226;-77
2021/09/17 10:46:06;;;;;;;22.25;17.67;;;23.30;99.90;;;;;;5082720;28;20293;-77
2021/09/17 10:48:56;;;;;;;22.40;17.48;;;23.30;99.90;;;;;;5085970;28;20224;-77
2021/09/17 10:51:34;;;;;;;22.55;16.83;;;23.30;99.90;;;;;;5083461;28;20199;-77
2021/09/17 10:54:03;;;;;;;23.60;18.30;;;23.20;99.90;;;;;;5093455;28;20666;-77
2021/09/17 10:57:04;;;;;;;27.60;16.20;;;23.00;99.90;;;;;;5082849;28;20206;-77
2021/09/17 10:59:50;;;;;;;23.42;18.02;;;23.00;99.90;;;;;;5082688;28;20209;-77
2021/09/17 11:02:17;;;;;;;26.88;20.13;;;22.90;99.90;;;;;;5082126;28;20239;-77
2021/09/17 11:04:46;;;;;;;21.65;15.68;;;23.00;99.90;;;;;;5082572;28;20244;-77
2021/09/17 11:07:34;;;;;;;25.25;20.73;;;22.90;99.90;;;;;;5082358;28;20202;-77
2021/09/17 11:10:03;;;;;;;26.73;21.77;;;22.90;99.90;;;;;;5082896;28;20236;-77
2021/09/17 11:12:32;;;;;;;28.52;25.67;;;22.90;99.90;;;;;;5088088;28;20252;-77
2021/09/17 11:15:09;;;;;;;24.90;18.13;;;23.00;99.90;;;;;;5081142;28;20209;-77
2021/09/17 11:17:41;;;;;;;30.98;24.23;;;23.10;99.90;;;;;;5068324;28;20198;-77
2021/09/17 11:20:12;;;;;;;31.10;25.10;;;23.20;99.90;;;;;;5068905;28;20203;-77
2021/09/17 11:23:00;;;;;;;34.20;28.02;;;23.20;99.90;;;;;;5068995;28;20249;-77
2021/09/17 11:25:38;;;;;;;37.13;24.25;;;23.20;99.90;;;;;;5069649;28;20211;-77
2021/09/17 11:28:08;;;;;;;41.30;37.13;;;23.30;99.90;;;;;;5068729;28;20203;-76
2021/09/17 11:30:36;;;;;;;30.30;26.20;;;23.20;99.90;;;;;;5068863;28;20725;-77
2021/09/17 11:33:17;;;;;;;33.70;25.83;;;23.30;99.90;;;;;;5074463;28;20296;-77
2021/09/17 11:35:44;;;;;;;25.90;21.50;;;23.30;99.90;;;;;;5072580;28;20268;-77
2021/09/17 11:38:11;;;;;;;28.10;23.30;;;23.20;99.90;;;;;;5068840;28;20208;-77
2021/09/17 11:40:50;;;;;;;31.83;23.58;;;23.30;99.90;;;;;;5068820;28;20204;-77
2021/09/17 11:43:18;;;;;;;26.40;23.40;;;23.30;99.90;;;;;;5075290;28;20285;-77
2021/09/17 11:45:47;;;;;;;32.63;26.02;;;23.30;99.90;;;;;;5073044;28;20235;-77
2021/09/17 11:48:21;;;;;;;34.35;26.08;;;23.20;99.90;;;;;;5073915;28;20225;-77
2021/09/17 11:50:49;;;;;;;28.67;25.48;;;23.10;99.90;;;;;;5068243;28;20661;-77
2021/09/17 11:53:16;;;;;;;32.00;27.90;;;22.90;99.90;;;;;;5068610;28;20199;-77
2021/09/17 11:55:43;;;;;;;37.95;34.38;;;22.90;99.90;;;;;;5074995;28;20211;-77
2021/09/17 11:58:10;;;;;;;31.88;28.67;;;22.90;99.90;;;;;;5068248;28;20203;-77
2021/09/17 12:00:39;;;;;;;43.72;39.60;;;22.90;99.90;;;;;;5073523;28;20208;-77
2021/09/17 12:03:08;;;;;;;32.20;28.80;;;22.90;99.90;;;;;;5067162;28;20323;-77
2021/09/17 12:05:37;;;;;;;43.25;38.95;;;22.80;99.90;;;;;;5073491;28;20541;-77
2021/09/17 12:08:05;;;;;;;29.30;24.83;;;22.80;99.90;;;;;;5072618;28;20257;-77
2021/09/17 12:10:33;;;;;;;30.65;27.52;;;22.80;99.90;;;;;;5070072;28;20204;-77
2021/09/17 12:13:02;;;;;;;38.40;34.30;;;22.90;99.90;;;;;;5068321;28;20205;-77
2021/09/17 12:15:31;;;;;;;41.70;38.03;;;22.90;99.90;;;;;;5077479;28;20643;-77
2021/09/17 12:18:01;;;;;;;35.67;32.17;;;22.80;99.90;;;;;;5077024;28;20205;-77
2021/09/17 12:20:43;;;;;;;26.77;20.75;;;22.80;99.90;;;;;;5070949;28;20197;-77
2021/09/17 12:23:12;;;;;;;27.98;25.05;;;22.80;99.90;;;;;;5067079;28;20208;-76
2021/09/17 12:25:39;;;;;;;31.88;29.15;;;22.80;99.90;;;;;;5067914;28;20634;-77
2021/09/17 12:28:08;;;;;;;22.75;19.33;;;22.90;99.90;;;;;;5067495;28;20203;-77
2021/09/17 12:30:37;;;;;;;33.03;23.10;;;23.00;99.90;;;;;;5068594;28;20193;-77
2021/09/17 12:33:08;;;;;;;27.15;18.48;;;23.10;99.90;;;;;;5072059;28;20213;-77
2021/09/17 12:35:36;;;;;;;27.73;20.60;;;23.20;99.90;;;;;;5068881;28;20643;-77
2021/09/17 12:38:04;;;;;;;35.30;19.05;;;23.30;99.90;;;;;;5067655;28;20235;-77
2021/09/17 12:40:32;;;;;;;22.85;18.42;;;23.40;99.90;;;;;;5071888;28;20205;-76